Time;durP1;ratioP1;P1;durP2;ratioP2;P2;SDS_P1;SDS_P2;PMS_P1;PMS_P2;Temp;Humidity;BMP_temperature;BMP_pressure;BME280_temperature;BME280_humidity;BME280_pressure;Samples;Min_cycle;Max_cycle;Signal;HPM_P1;HPM_P2
2022/08/13 00:00:41;;;;;;;8.92;8.30;;;;;;;26.65;45.08;100673.99;447342;118;923210;-76
2022/08/13 00:01:46;;;;;;;8.89;8.18;;;;;;;26.64;45.06;100675.96;447640;118;922848;-76
2022/08/13 00:02:51;;;;;;;9.45;8.65;;;;;;;26.65;45.06;100676.79;447834;118;923089;-76
2022/08/13 00:03:55;;;;;;;11.33;8.76;;;;;;;26.65;45.07;100679.59;447533;118;923104;-75
2022/08/13 00:05:00;;;;;;;8.74;8.14;;;;;;;26.65;45.04;100679.59;449179;116;923233;-76
2022/08/13 00:06:08;;;;;;;8.76;8.10;;;;;;;26.65;45.11;100672.02;453448;116;923249;-76
2022/08/13 00:07:12;;;;;;;8.39;7.64;;;;;;;26.66;45.08;100682.08;446215;118;922572;-75
2022/08/13 00:08:17;;;;;;;8.72;8.02;;;;;;;26.65;45.05;100674.83;441190;120;922717;-76
2022/08/13 00:09:20;;;;;;;9.38;8.54;;;;;;;26.65;45.09;100673.99;441473;120;922697;-76
2022/08/13 00:10:34;;;;;;;10.14;8.66;;;;;;;26.65;45.14;100677.63;438788;120;922623;-75
2022/08/13 00:13:03;;;;;;;8.21;7.53;;;;;;;26.65;45.04;100674.83;433626;122;923256;-75
2022/08/13 00:14:06;;;;;;;9.28;8.53;;;;;;;26.65;44.99;100665.60;449806;116;922869;-76
2022/08/13 00:15:17;;;;;;;9.69;8.78;;;;;;;26.65;44.97;100676.79;452241;116;922570;-76
2022/08/13 00:16:20;;;;;;;8.71;7.94;;;;;;;26.64;44.97;100661.98;447647;118;922672;-74
2022/08/13 00:17:25;;;;;;;8.78;8.05;;;;;;;26.64;44.94;100661.15;447804;118;922805;-74
2022/08/13 00:18:29;;;;;;;9.49;8.66;;;;;;;26.64;44.97;100667.57;445749;118;922617;-76
2022/08/13 00:19:33;;;;;;;9.24;8.39;;;;;;;26.65;44.99;100666.43;447827;118;923577;-75
2022/08/13 00:20:42;;;;;;;9.31;8.54;;;;;;;26.64;44.93;100664.77;447893;118;922571;-75
2022/08/13 00:21:47;;;;;;;8.85;8.03;;;;;;;26.65;44.91;100674.83;446980;118;923316;-75
2022/08/13 00:22:54;;;;;;;8.51;7.89;;;;;;;26.65;44.88;100672.02;445772;118;922629;-75
2022/08/13 00:23:59;;;;;;;9.07;8.23;;;;;;;26.65;44.89;100665.60;447133;118;923079;-74
2022/08/13 00:25:07;;;;;;;8.78;8.11;;;;;;;26.64;44.85;100664.77;447756;118;922647;-74
2022/08/13 00:26:14;;;;;;;8.88;8.09;;;;;;;26.65;44.81;100666.43;446398;116;922555;-75
2022/08/13 00:27:22;;;;;;;8.83;8.15;;;;;;;26.65;44.88;100665.60;442738;119;922766;-76
2022/08/13 00:28:28;;;;;;;9.48;8.73;;;;;;;26.64;44.89;100659.18;445767;119;922710;-75
2022/08/13 00:29:32;;;;;;;9.18;8.38;;;;;;;26.66;44.95;100664.46;445904;118;922707;-75
2022/08/13 00:30:38;;;;;;;9.04;8.24;;;;;;;26.66;44.82;100662.50;448937;116;922715;-75
2022/08/13 00:31:44;;;;;;;8.59;7.95;;;;;;;26.66;44.81;100661.66;455395;116;923130;-75
2022/08/13 00:32:48;;;;;;;8.60;7.97;;;;;;;26.66;44.76;100665.30;455015;116;930600;-75
2022/08/13 00:33:51;;;;;;;8.94;8.24;;;;;;;26.66;44.74;100661.66;455536;116;923463;-75
2022/08/13 00:34:57;;;;;;;9.14;8.24;;;;;;;26.66;44.72;100662.50;455360;116;922624;-75
2022/08/13 00:36:00;;;;;;;8.56;7.72;;;;;;;26.67;44.66;100663.32;455460;116;923073;-75
2022/08/13 00:37:03;;;;;;;8.12;7.48;;;;;;;26.67;44.61;100664.16;455461;116;922551;-75
2022/08/13 00:38:14;;;;;;;8.28;7.68;;;;;;;26.67;44.59;100663.32;455332;116;930589;-75
2022/08/13 00:39:18;;;;;;;8.47;7.84;;;;;;;26.68;44.60;100660.21;455351;116;922727;-76
2022/08/13 00:40:25;;;;;;;8.01;7.20;;;;;;;26.67;44.59;100664.16;455381;116;922607;-75
2022/08/13 00:41:39;;;;;;;9.21;8.38;;;;;;;26.68;44.49;100670.58;454858;116;923093;-75
2022/08/13 00:42:44;;;;;;;8.19;7.46;;;;;;;26.67;44.43;100663.32;453420;116;922998;-75
2022/08/13 00:43:49;;;;;;;9.09;8.16;;;;;;;26.67;44.37;100664.16;455030;116;922643;-75
2022/08/13 00:44:52;;;;;;;8.79;8.08;;;;;;;26.68;44.33;100667.78;455476;116;922523;-75
2022/08/13 00:45:56;;;;;;;8.83;7.81;;;;;;;26.68;44.34;100667.78;455416;116;930496;-75
2022/08/13 00:48:43;;;;;;;8.39;7.66;;;;;;;26.68;44.31;100664.98;455395;116;922680;-75
2022/08/13 00:49:47;;;;;;;8.49;7.59;;;;;;;26.67;44.33;100652.13;454529;116;922929;-75
2022/08/13 00:50:56;;;;;;;9.33;7.94;;;;;;;26.67;44.34;100654.93;453338;116;922626;-74
2022/08/13 00:52:01;;;;;;;8.59;7.87;;;;;;;26.66;44.36;100653.27;455354;116;923110;-75
2022/08/13 00:53:05;;;;;;;8.43;7.81;;;;;;;26.65;44.35;100643.23;455378;116;922670;-75
2022/08/13 00:54:12;;;;;;;8.84;8.14;;;;;;;26.66;44.31;100645.71;455559;116;922946;-73
2022/08/13 00:55:19;;;;;;;8.32;7.71;;;;;;;26.65;44.19;100646.85;455816;116;922809;-75
2022/08/13 00:56:25;;;;;;;11.28;8.58;;;;;;;26.66;44.17;100645.71;456190;115;922663;-75
2022/08/13 00:57:29;;;;;;;9.24;8.42;;;;;;;26.66;44.13;100642.91;456372;116;922680;-75
2022/08/13 00:58:34;;;;;;;11.47;8.01;;;;;;;26.65;44.09;100635.66;456434;116;922617;-76
2022/08/13 00:59:39;;;;;;;8.21;7.56;;;;;;;26.65;44.08;100635.66;456133;115;930677;-75
2022/08/13 01:00:53;;;;;;;7.99;7.43;;;;;;;26.66;43.98;100639.29;456157;115;922631;-75
2022/08/13 01:01:56;;;;;;;8.76;8.12;;;;;;;26.65;43.98;100638.46;456317;116;922674;-75
2022/08/13 01:03:01;;;;;;;7.73;7.17;;;;;;;26.65;44.03;100638.46;456412;116;922751;-76
2022/08/13 01:04:07;;;;;;;8.66;7.94;;;;;;;26.65;43.96;100632.03;454351;116;922810;-75
2022/08/13 01:05:12;;;;;;;8.88;7.98;;;;;;;26.66;43.92;100636.49;453086;115;922817;-75
2022/08/13 01:06:21;;;;;;;8.52;7.91;;;;;;;26.66;43.87;100633.69;448517;117;922866;-75
2022/08/13 01:07:25;;;;;;;8.35;7.76;;;;;;;26.66;43.91;100634.52;448621;117;922523;-75
2022/08/13 01:08:34;;;;;;;8.74;7.79;;;;;;;26.66;43.87;100631.73;448480;118;922893;-75
2022/08/13 01:09:37;;;;;;;8.10;7.45;;;;;;;26.67;43.77;100632.55;448544;118;923149;-75
2022/08/13 01:10:45;;;;;;;7.89;7.35;;;;;;;26.67;43.75;100629.76;448453;118;922635;-76
2022/08/13 01:11:50;;;;;;;9.74;7.48;;;;;;;26.66;43.68;100626.13;447559;118;922727;-75
2022/08/13 01:12:54;;;;;;;8.03;7.50;;;;;;;26.66;43.63;100631.73;448832;117;923127;-75
2022/08/13 01:13:58;;;;;;;8.64;8.02;;;;;;;26.67;43.59;100636.18;448720;118;922753;-75
2022/08/13 01:15:02;;;;;;;7.88;7.26;;;;;;;26.66;43.57;100631.73;450419;116;922580;-74
2022/08/13 01:16:07;;;;;;;7.44;6.85;;;;;;;26.67;43.52;100636.18;456396;116;927307;-75
2022/08/13 01:17:12;;;;;;;8.21;7.61;;;;;;;26.66;43.49;100628.93;456383;116;922633;-75
2022/08/13 01:18:18;;;;;;;9.69;7.61;;;;;;;26.66;43.47;100626.13;456373;116;922625;-75
2022/08/13 01:19:21;;;;;;;8.21;7.52;;;;;;;26.66;43.47;100634.52;456450;115;922575;-75
2022/08/13 01:20:29;;;;;;;8.88;8.08;;;;;;;26.65;43.46;100630.07;454467;116;922624;-76
2022/08/13 01:21:44;;;;;;;8.66;7.93;;;;;;;26.65;43.45;100630.07;456155;115;922649;-75
2022/08/13 01:22:52;;;;;;;7.73;7.08;;;;;;;26.65;43.45;100620.84;448583;118;922646;-76
2022/08/13 01:23:57;;;;;;;8.37;7.61;;;;;;;26.64;43.45;100620.02;448554;118;922609;-75
2022/08/13 01:25:06;;;;;;;8.53;7.90;;;;;;;26.64;43.48;100625.61;448449;117;922600;-76
2022/08/13 01:26:10;;;;;;;7.89;7.29;;;;;;;26.64;43.47;100628.41;448536;118;922856;-75
2022/08/13 01:27:18;;;;;;;8.98;8.28;;;;;;;26.64;43.45;100627.59;448660;117;922557;-75
2022/08/13 01:28:19;;;;;;;8.39;7.69;;;;;;;26.63;43.41;100623.95;448524;117;922667;-76
2022/08/13 01:29:25;;;;;;;7.70;7.18;;;;;;;26.64;43.44;100624.79;448639;117;922748;-75
2022/08/13 01:30:31;;;;;;;8.85;8.09;;;;;;;26.63;43.41;100620.36;449470;116;930591;-76
2022/08/13 01:31:34;;;;;;;8.56;7.75;;;;;;;26.63;43.45;100625.96;456282;116;923052;-75
2022/08/13 01:32:37;;;;;;;8.22;7.53;;;;;;;26.62;43.36;100627.93;456488;116;922572;-76
2022/08/13 01:33:43;;;;;;;11.19;8.11;;;;;;;26.62;43.36;100625.12;453095;116;922719;-76
2022/08/13 01:34:50;;;;;;;8.08;7.30;;;;;;;26.62;43.31;100625.12;448080;117;922641;-77
2022/08/13 01:35:55;;;;;;;8.81;7.96;;;;;;;26.62;43.33;100625.12;448564;118;922606;-75
2022/08/13 01:37:00;;;;;;;7.94;7.30;;;;;;;26.62;43.31;100633.52;448570;118;922633;-75
2022/08/13 01:38:05;;;;;;;7.78;7.22;;;;;;;26.62;43.30;100630.73;448579;117;922848;-76
2022/08/13 01:39:10;;;;;;;9.51;7.93;;;;;;;26.62;43.29;100633.52;448530;117;930491;-76
2022/08/13 01:40:15;;;;;;;8.21;7.51;;;;;;;26.62;43.28;100625.12;447826;117;922785;-76
2022/08/13 01:41:19;;;;;;;8.46;7.84;;;;;;;26.62;43.36;100627.93;448764;116;922935;-76
2022/08/13 01:42:23;;;;;;;8.28;7.78;;;;;;;26.62;43.26;100625.12;448603;118;922627;-75
2022/08/13 01:43:30;;;;;;;8.31;7.64;;;;;;;26.62;43.25;100625.12;446633;118;923456;-76
2022/08/13 01:44:33;;;;;;;7.62;7.12;;;;;;;26.62;43.25;100625.12;448664;118;922679;-76
2022/08/13 01:45:37;;;;;;;8.30;7.74;;;;;;;26.62;43.29;100618.70;448637;116;922742;-76
2022/08/13 01:50:49;;;;;;;8.47;7.57;;;;;;;26.60;43.34;100613.42;448541;116;922710;-76
2022/08/13 01:51:54;;;;;;;8.98;7.69;;;;;;;26.58;43.34;100616.53;448546;118;922531;-76
2022/08/13 01:53:07;;;;;;;8.69;8.09;;;;;;;26.57;43.34;100611.28;448724;118;922669;-76
2022/08/13 01:54:12;;;;;;;8.65;7.76;;;;;;;26.58;43.35;100612.91;448587;118;922737;-76
2022/08/13 01:55:19;;;;;;;8.04;7.44;;;;;;;26.56;43.43;100618.02;446562;117;922680;-76
2022/08/13 01:56:25;;;;;;;8.86;8.15;;;;;;;26.57;43.44;100614.08;448138;118;922654;-76
2022/08/13 01:57:29;;;;;;;8.64;7.82;;;;;;;26.56;43.41;100613.25;448575;118;922596;-75
2022/08/13 01:58:34;;;;;;;8.84;8.06;;;;;;;26.54;43.41;100609.94;445925;118;922529;-76
2022/08/13 01:59:41;;;;;;;7.79;7.27;;;;;;;26.55;43.45;100607.97;445899;118;922916;-74
2022/08/13 02:00:48;;;;;;;8.24;7.52;;;;;;;26.55;43.42;100610.77;445894;118;922956;-75
2022/08/13 02:01:54;;;;;;;9.11;8.38;;;;;;;26.54;43.42;100604.34;448482;118;922668;-75
2022/08/13 02:03:01;;;;;;;8.91;8.13;;;;;;;26.54;43.42;100595.95;447764;118;923060;-75
2022/08/13 02:04:06;;;;;;;8.58;7.98;;;;;;;26.54;43.44;100597.92;448687;118;923172;-75
2022/08/13 02:05:12;;;;;;;8.31;7.59;;;;;;;26.53;43.46;100594.30;450721;116;922658;-74
2022/08/13 02:06:29;;;;;;;8.06;7.33;;;;;;;26.51;43.52;100596.61;451982;116;922638;-75
2022/08/13 02:07:35;;;;;;;8.20;7.60;;;;;;;26.52;43.59;100594.62;454667;116;922827;-75
2022/08/13 02:08:41;;;;;;;9.01;8.33;;;;;;;26.50;43.61;100585.74;452003;116;922582;-75
2022/08/13 02:09:44;;;;;;;8.61;7.73;;;;;;;26.48;43.59;100588.85;454837;116;922672;-75
2022/08/13 02:10:52;;;;;;;8.79;8.13;;;;;;;26.49;43.57;100584.09;452007;116;922659;-75
2022/08/13 02:11:56;;;;;;;8.76;8.11;;;;;;;26.48;43.54;100586.05;452859;117;922635;-74
2022/08/13 02:13:01;;;;;;;10.67;7.87;;;;;;;26.45;43.59;100589.50;452865;117;923820;-75
2022/08/13 02:14:05;;;;;;;8.26;7.66;;;;;;;26.46;43.66;100595.92;453073;117;922658;-74
2022/08/13 02:15:10;;;;;;;9.55;8.61;;;;;;;26.45;43.69;100602.66;450941;117;922763;-75
2022/08/13 02:16:15;;;;;;;8.69;8.03;;;;;;;26.45;43.69;100591.47;448610;111;930517;-75
2022/08/13 02:17:27;;;;;;;10.34;7.91;;;;;;;26.44;43.68;100582.25;446490;119;922672;-75
2022/08/13 02:18:33;;;;;;;9.26;8.56;;;;;;;26.42;43.34;100573.35;441099;119;922743;-74
2022/08/13 02:19:38;;;;;;;8.26;7.64;;;;;;;26.42;43.34;100573.35;438971;121;922568;-75
2022/08/13 02:20:44;;;;;;;8.94;8.31;;;;;;;26.41;43.63;100580.08;438865;119;923095;-75
2022/08/13 02:21:47;;;;;;;8.26;7.65;;;;;;;26.40;43.69;100586.84;438803;121;930600;-74
2022/08/13 02:22:51;;;;;;;8.84;8.19;;;;;;;26.39;43.69;100596.37;438969;121;922676;-74
2022/08/13 02:23:56;;;;;;;9.01;8.15;;;;;;;26.39;43.68;100587.16;438973;121;922712;-74
2022/08/13 02:25:04;;;;;;;9.20;8.42;;;;;;;26.38;43.71;100583.53;438562;120;922631;-74
2022/08/13 02:26:08;;;;;;;8.82;8.22;;;;;;;26.39;43.75;100592.75;438804;119;923236;-75
2022/08/13 02:27:12;;;;;;;8.59;7.89;;;;;;;26.39;43.76;100587.16;438860;120;922651;-74
2022/08/13 02:28:19;;;;;;;8.95;8.16;;;;;;;26.38;43.73;100579.91;438840;121;930543;-75
2022/08/13 02:29:24;;;;;;;8.67;7.99;;;;;;;26.38;43.76;100588.30;438312;120;922624;-74
2022/08/13 02:30:30;;;;;;;9.48;8.48;;;;;;;26.38;43.73;100591.09;444974;119;922574;-74
2022/08/13 02:31:34;;;;;;;8.82;8.17;;;;;;;26.37;43.74;100581.88;438820;119;923047;-75
2022/08/13 02:32:40;;;;;;;9.00;8.32;;;;;;;26.37;43.90;100579.08;436997;121;930545;-74
2022/08/13 02:33:44;;;;;;;10.17;9.14;;;;;;;26.36;44.03;100577.42;438904;119;922625;-75
2022/08/13 02:34:51;;;;;;;9.22;8.53;;;;;;;26.37;44.13;100586.64;438939;120;922586;-75
2022/08/13 02:35:54;;;;;;;8.89;8.24;;;;;;;26.35;44.60;100574.97;438766;119;930483;-74
2022/08/13 02:36:58;;;;;;;8.58;7.77;;;;;;;26.35;44.60;100574.97;438939;120;922655;-75
2022/08/13 02:38:05;;;;;;;9.35;8.06;;;;;;;26.33;44.22;100592.06;437450;121;923559;-75
2022/08/13 02:39:10;;;;;;;9.36;8.07;;;;;;;26.33;44.26;100588.44;438667;120;923075;-75
2022/08/13 02:41:38;;;;;;;8.59;7.97;;;;;;;26.31;44.41;100587.92;438774;119;922584;-75
2022/08/13 02:42:43;;;;;;;12.44;8.56;;;;;;;26.29;44.52;100602.23;437585;121;922702;-75
2022/08/13 02:43:47;;;;;;;9.09;7.86;;;;;;;26.28;44.65;100619.32;438916;120;922565;-75
2022/08/13 02:44:52;;;;;;;9.12;8.16;;;;;;;26.27;44.71;100620.45;438216;120;924841;-75
2022/08/13 02:45:56;;;;;;;8.78;8.07;;;;;;;26.25;44.75;100617.97;438996;119;922677;-77
2022/08/13 02:47:01;;;;;;;9.21;8.46;;;;;;;26.24;44.89;100605.17;438869;120;922591;-74
2022/08/13 02:48:05;;;;;;;9.16;8.33;;;;;;;26.24;44.94;100609.92;438928;120;922672;-76
2022/08/13 02:49:10;;;;;;;9.76;8.97;;;;;;;26.22;45.04;100607.41;438603;120;922852;-75
2022/08/13 02:50:16;;;;;;;9.11;8.47;;;;;;;26.22;45.04;100606.58;438677;120;922650;-75
2022/08/13 02:51:23;;;;;;;8.84;8.10;;;;;;;26.20;45.05;100608.86;438913;119;922643;-75
2022/08/13 02:52:28;;;;;;;10.92;9.37;;;;;;;26.20;45.09;100600.47;437636;121;922833;-75
2022/08/13 02:53:32;;;;;;;14.05;7.93;;;;;;;26.16;45.15;100615.10;438964;120;922757;-74
2022/08/13 02:54:42;;;;;;;10.03;9.08;;;;;;;26.16;45.30;100608.68;438761;119;923191;-75
2022/08/13 02:55:47;;;;;;;9.44;8.84;;;;;;;26.16;45.40;100608.68;437530;119;922666;-74
2022/08/13 02:56:52;;;;;;;9.45;8.72;;;;;;;26.15;45.44;100595.84;438742;120;922625;-75
2022/08/13 02:57:55;;;;;;;9.46;8.76;;;;;;;26.15;45.57;100596.67;439043;120;922622;-75
2022/08/13 02:58:59;;;;;;;10.55;9.53;;;;;;;26.15;45.57;100591.08;439011;120;922766;-75
2022/08/13 03:00:03;;;;;;;9.36;8.64;;;;;;;26.15;45.59;100585.49;439041;121;922965;-75
2022/08/13 03:01:11;;;;;;;9.17;8.47;;;;;;;26.16;45.67;100589.12;438638;119;922875;-75
2022/08/13 03:02:17;;;;;;;9.77;8.91;;;;;;;26.16;46.05;100589.12;438878;120;922663;-75
2022/08/13 03:03:22;;;;;;;10.15;8.99;;;;;;;26.16;46.05;100589.12;438826;120;922597;-75
2022/08/13 03:04:25;;;;;;;9.91;9.16;;;;;;;26.18;45.76;100597.19;438961;120;922605;-75
2022/08/13 03:05:31;;;;;;;9.66;8.70;;;;;;;26.20;45.94;100589.30;438550;120;922706;-75
2022/08/13 03:06:36;;;;;;;9.57;8.76;;;;;;;26.21;45.94;100599.34;437165;121;922742;-74
2022/08/13 03:07:43;;;;;;;11.68;9.82;;;;;;;26.21;45.94;100599.34;438849;120;922600;-75
2022/08/13 03:08:52;;;;;;;9.11;8.48;;;;;;;26.20;45.66;100614.45;438155;120;922646;-74
2022/08/13 03:09:58;;;;;;;9.59;8.85;;;;;;;26.20;45.66;100614.45;438788;121;922648;-74
2022/08/13 03:11:03;;;;;;;8.80;8.07;;;;;;;26.20;45.94;100606.06;438809;120;922601;-74
2022/08/13 03:12:09;;;;;;;8.84;8.16;;;;;;;26.20;45.98;100595.71;438795;121;923519;-75
2022/08/13 03:13:19;;;;;;;8.84;8.18;;;;;;;26.20;45.63;100603.27;438784;121;922619;-75
2022/08/13 03:14:24;;;;;;;9.93;9.11;;;;;;;26.20;45.63;100603.27;438620;120;922818;-75
2022/08/13 03:15:30;;;;;;;9.33;8.61;;;;;;;26.22;45.91;100606.58;438728;120;922593;-74
2022/08/13 03:16:35;;;;;;;9.44;8.68;;;;;;;26.22;46.15;100604.61;438809;120;922991;-75
2022/08/13 03:17:40;;;;;;;9.21;8.18;;;;;;;26.22;46.12;100601.82;439451;120;923043;-75
2022/08/13 03:18:46;;;;;;;8.76;8.09;;;;;;;26.23;46.05;100602.69;439042;120;930536;-75
2022/08/13 03:19:52;;;;;;;9.06;8.39;;;;;;;26.24;45.85;100604.34;439270;120;922571;-75
2022/08/13 03:20:58;;;;;;;8.99;7.89;;;;;;;26.24;45.42;100599.58;439304;120;922582;-75
2022/08/13 03:22:01;;;;;;;9.25;8.38;;;;;;;26.24;45.42;100599.58;439465;120;922993;-75
2022/08/13 03:23:04;;;;;;;9.24;8.48;;;;;;;26.26;45.52;100593.64;439480;120;922947;-75
2022/08/13 03:24:15;;;;;;;8.86;8.19;;;;;;;26.26;45.43;100596.44;439349;120;922579;-74
2022/08/13 03:25:22;;;;;;;9.38;8.48;;;;;;;26.26;45.24;100600.06;439050;120;930727;-74
2022/08/13 03:26:28;;;;;;;9.47;8.68;;;;;;;26.28;45.27;100608.14;439249;120;922761;-75
2022/08/13 03:27:32;;;;;;;8.55;7.92;;;;;;;26.28;45.27;100608.14;439426;120;922753;-75
2022/08/13 03:28:35;;;;;;;9.84;8.98;;;;;;;26.29;44.76;100612.59;439518;120;922679;-74
2022/08/13 03:29:40;;;;;;;9.71;8.97;;;;;;;26.30;44.65;100608.66;440951;118;922936;-75
2022/08/13 03:30:46;;;;;;;10.60;9.63;;;;;;;26.33;44.86;100613.59;443668;118;922538;-75
2022/08/13 03:31:51;;;;;;;10.07;9.14;;;;;;;26.33;44.86;100613.59;445682;117;922764;-76
2022/08/13 03:32:56;;;;;;;9.80;9.08;;;;;;;26.33;44.54;100617.22;446543;118;923282;-74
2022/08/13 03:34:02;;;;;;;11.71;10.51;;;;;;;26.35;44.60;100628.09;449624;116;923059;-74
2022/08/13 03:35:13;;;;;;;11.81;10.89;;;;;;;26.35;44.52;100626.13;453960;117;922636;-75
2022/08/13 03:36:20;;;;;;;12.88;11.85;;;;;;;26.37;44.59;100622.98;453177;116;922588;-74
2022/08/13 03:37:24;;;;;;;15.14;13.97;;;;;;;26.37;44.54;100625.78;454043;116;922622;-75
2022/08/13 03:38:28;;;;;;;15.03;12.34;;;;;;;26.37;44.42;100626.61;453885;117;922690;-75
2022/08/13 03:39:32;;;;;;;13.18;11.85;;;;;;;26.40;44.33;100625.16;454076;117;922681;-75
2022/08/13 03:42:00;;;;;;;12.39;11.34;;;;;;;26.41;44.13;100624.82;453920;117;923028;-75
2022/08/13 03:43:09;;;;;;;12.13;10.96;;;;;;;26.43;43.96;100622.55;454141;117;922619;-76
2022/08/13 03:44:14;;;;;;;12.42;10.83;;;;;;;26.44;44.06;100626.17;453538;116;922702;-75
2022/08/13 03:45:22;;;;;;;11.62;10.54;;;;;;;26.46;44.00;100624.69;453636;116;922661;-75
2022/08/13 03:46:27;;;;;;;11.01;9.98;;;;;;;26.48;43.91;100628.00;453930;117;922674;-75
2022/08/13 03:47:30;;;;;;;11.91;11.02;;;;;;;26.49;43.82;100626.86;454010;117;922670;-75
2022/08/13 03:48:35;;;;;;;10.39;9.56;;;;;;;26.52;43.92;100639.36;453969;116;930327;-76
2022/08/13 03:49:39;;;;;;;10.06;9.04;;;;;;;26.52;43.95;100634.59;453968;117;922923;-75
2022/08/13 03:50:46;;;;;;;9.83;8.99;;;;;;;26.55;43.90;100638.73;453916;117;930869;-75
2022/08/13 03:51:51;;;;;;;8.64;7.96;;;;;;;26.56;43.82;100638.42;453177;116;922690;-75
2022/08/13 03:53:04;;;;;;;8.09;7.39;;;;;;;26.60;43.71;100634.97;454187;117;923169;-75
2022/08/13 03:54:07;;;;;;;8.63;7.96;;;;;;;26.61;43.63;100634.66;444003;117;923357;-75
2022/08/13 03:55:14;;;;;;;8.82;8.06;;;;;;;26.64;43.56;100642.40;444149;119;922720;-75
2022/08/13 03:56:19;;;;;;;7.92;7.14;;;;;;;26.66;43.45;100645.71;444060;119;922832;-75
2022/08/13 03:57:24;;;;;;;8.03;7.38;;;;;;;26.69;43.36;100647.03;443867;119;922973;-75
2022/08/13 03:58:29;;;;;;;8.36;7.61;;;;;;;26.72;43.25;100646.41;434132;122;922623;-75
2022/08/13 03:59:33;;;;;;;8.37;7.68;;;;;;;26.74;43.14;100650.52;436883;121;922659;-75
2022/08/13 04:00:47;;;;;;;8.17;7.29;;;;;;;26.76;43.08;100644.60;434102;121;923225;-75
2022/08/13 04:01:53;;;;;;;7.72;6.93;;;;;;;26.78;42.98;100647.92;436356;121;922666;-75
2022/08/13 04:03:00;;;;;;;7.42;6.90;;;;;;;26.80;42.95;100649.23;443972;117;922692;-75
2022/08/13 04:04:05;;;;;;;7.29;6.74;;;;;;;26.81;42.88;100642.49;433942;122;922715;-75
2022/08/13 04:05:16;;;;;;;7.31;6.63;;;;;;;26.83;42.77;100642.18;434045;121;922658;-75
2022/08/13 04:06:22;;;;;;;7.09;6.53;;;;;;;26.85;42.74;100642.70;446250;116;923307;-75
2022/08/13 04:07:27;;;;;;;7.46;6.86;;;;;;;26.86;42.65;100642.34;446318;118;930592;-75
2022/08/13 04:08:35;;;;;;;7.50;6.85;;;;;;;26.87;42.68;100645.98;444049;118;923204;-75
2022/08/13 04:09:39;;;;;;;6.88;6.22;;;;;;;26.89;42.53;100644.55;446643;118;922801;-75
2022/08/13 04:10:44;;;;;;;7.21;6.42;;;;;;;26.90;42.43;100643.41;444190;116;922708;-76
2022/08/13 04:11:49;;;;;;;7.27;6.66;;;;;;;26.92;42.39;100629.91;445961;118;922691;-75
2022/08/13 04:12:54;;;;;;;8.78;6.51;;;;;;;26.94;42.29;100636.02;444130;118;923038;-75
2022/08/13 04:13:57;;;;;;;7.20;6.31;;;;;;;26.95;42.26;100637.67;446841;118;922978;-75
2022/08/13 04:15:02;;;;;;;8.84;5.89;;;;;;;26.97;42.21;100631.73;446102;116;922823;-75
2022/08/13 04:16:08;;;;;;;6.79;6.13;;;;;;;26.98;42.16;100627.78;454407;114;922738;-75
2022/08/13 04:17:13;;;;;;;7.79;6.78;;;;;;;27.00;42.20;100630.27;453153;116;922787;-74
2022/08/13 04:18:18;;;;;;;6.22;5.66;;;;;;;27.02;42.06;100630.75;448464;118;922736;-75
2022/08/13 04:19:21;;;;;;;6.82;6.13;;;;;;;27.03;42.00;100629.61;448642;118;922681;-75
2022/08/13 04:20:26;;;;;;;8.40;6.24;;;;;;;27.03;41.93;100638.83;448612;118;922632;-75
2022/08/13 04:21:31;;;;;;;7.01;6.51;;;;;;;27.05;41.93;100638.52;448603;116;930513;-75
2022/08/13 04:22:39;;;;;;;7.38;6.53;;;;;;;27.06;41.94;100642.97;448565;118;922643;-74
2022/08/13 04:23:46;;;;;;;8.77;6.59;;;;;;;27.06;41.91;100645.77;448523;118;922968;-75
2022/08/13 04:24:49;;;;;;;8.38;7.31;;;;;;;27.07;41.83;100648.23;448541;118;922974;-75
2022/08/13 04:25:52;;;;;;;8.33;7.28;;;;;;;27.08;41.87;100647.08;448763;116;922770;-75
2022/08/13 04:26:58;;;;;;;7.71;6.85;;;;;;;27.10;41.78;100652.37;448647;118;922679;-75
2022/08/13 04:28:01;;;;;;;7.68;7.08;;;;;;;27.11;41.77;100646.45;448549;118;922644;-75
2022/08/13 04:29:08;;;;;;;7.64;6.94;;;;;;;27.12;41.70;100648.11;448579;118;923001;-75
2022/08/13 04:30:16;;;;;;;7.27;6.79;;;;;;;27.14;41.71;100645.80;446471;118;922775;-75
2022/08/13 04:31:18;;;;;;;7.49;6.99;;;;;;;27.15;41.70;100653.05;437370;119;922713;-75
2022/08/13 04:32:23;;;;;;;7.09;6.58;;;;;;;27.17;41.74;100647.13;436545;121;923317;-75
2022/08/13 04:33:28;;;;;;;7.16;6.66;;;;;;;27.19;41.74;100650.41;436402;121;922685;-75
2022/08/13 04:34:33;;;;;;;7.49;7.00;;;;;;;27.21;41.74;100648.13;426936;123;923017;-76
2022/08/13 04:35:39;;;;;;;7.49;6.84;;;;;;;27.23;41.75;100655.06;428668;121;922641;-75
2022/08/13 04:36:43;;;;;;;7.88;6.11;;;;;;;27.24;41.71;100653.06;429251;123;922727;-75
2022/08/13 04:37:51;;;;;;;7.19;6.59;;;;;;;27.27;41.66;100649.63;428750;123;922681;-75
2022/08/13 04:38:55;;;;;;;6.68;6.24;;;;;;;27.29;41.59;100655.74;428621;123;922929;-76
2022/08/13 04:39:58;;;;;;;6.73;6.22;;;;;;;27.30;41.58;100649.80;429450;123;922646;-75
2022/08/13 04:41:03;;;;;;;6.00;5.66;;;;;;;27.33;41.57;100651.14;428357;121;922641;-75
2022/08/13 04:42:07;;;;;;;6.99;6.41;;;;;;;27.35;41.57;100654.41;429303;123;930479;-75
2022/08/13 04:43:13;;;;;;;7.17;6.63;;;;;;;27.37;41.53;100652.12;426855;123;930898;-75
2022/08/13 04:44:16;;;;;;;6.19;5.79;;;;;;;27.39;41.57;100659.06;429288;123;922633;-76
2022/08/13 04:45:21;;;;;;;12.63;6.06;;;;;;;27.41;41.53;100661.52;429493;123;922732;-75
2022/08/13 04:46:26;;;;;;;6.13;5.63;;;;;;;27.43;41.50;100656.43;429228;121;922649;-76
2022/08/13 04:47:31;;;;;;;6.81;6.19;;;;;;;27.46;41.46;100655.77;429281;123;922574;-76
2022/08/13 04:48:35;;;;;;;7.00;6.49;;;;;;;27.48;41.46;100650.67;429492;123;923407;-75
2022/08/13 04:49:39;;;;;;;7.57;6.10;;;;;;;27.49;41.43;100657.93;429284;123;923299;-75
2022/08/13 04:50:46;;;;;;;6.88;6.26;;;;;;;27.51;41.38;100655.64;429173;121;922649;-75
2022/08/13 04:51:51;;;;;;;6.90;6.38;;;;;;;27.53;41.38;100658.95;429256;123;922860;-75
2022/08/13 04:52:56;;;;;;;8.72;6.53;;;;;;;27.55;41.41;100661.44;429169;123;922661;-75
2022/08/13 04:54:00;;;;;;;7.54;6.83;;;;;;;27.56;41.43;100666.72;429431;121;922664;-76
2022/08/13 04:55:06;;;;;;;6.87;6.36;;;;;;;27.58;41.41;100663.57;429288;123;922601;-75
2022/08/13 04:56:12;;;;;;;6.85;6.15;;;;;;;27.59;41.39;100662.42;428736;121;930486;-76
2022/08/13 04:57:17;;;;;;;6.39;5.83;;;;;;;27.61;41.35;100663.77;428857;123;922597;-75
2022/08/13 04:58:21;;;;;;;6.80;6.20;;;;;;;27.63;41.36;100663.41;429454;123;922712;-75
2022/08/13 04:59:24;;;;;;;6.46;5.94;;;;;;;27.64;41.36;100660.30;429393;123;923093;-75
2022/08/13 05:00:32;;;;;;;6.64;6.15;;;;;;;27.66;41.36;100662.78;429130;123;922870;-76
2022/08/13 05:01:35;;;;;;;7.64;6.89;;;;;;;27.68;41.44;100671.66;429236;121;922650;-75
2022/08/13 05:02:42;;;;;;;6.24;5.71;;;;;;;27.71;41.55;100666.25;426952;123;922973;-74
2022/08/13 05:03:46;;;;;;;7.11;6.52;;;;;;;27.73;41.51;100666.72;429201;123;922946;-75
2022/08/13 05:04:51;;;;;;;7.04;5.84;;;;;;;27.77;41.56;100673.34;428991;121;922726;-75
2022/08/13 05:05:56;;;;;;;6.64;5.95;;;;;;;27.78;41.53;100672.20;428973;123;922797;-75
2022/08/13 05:06:59;;;;;;;6.53;6.03;;;;;;;27.80;41.52;100660.64;436555;121;922694;-74
2022/08/13 05:08:05;;;;;;;10.31;6.48;;;;;;;27.83;41.53;100660.00;436076;121;922954;-75
2022/08/13 05:09:08;;;;;;;9.06;5.77;;;;;;;27.85;41.47;100668.06;439151;120;922722;-74
2022/08/13 05:10:26;;;;;;;6.56;6.07;;;;;;;27.87;41.46;100660.16;438726;120;922755;-76
2022/08/13 05:11:30;;;;;;;6.65;6.04;;;;;;;27.88;41.39;100668.25;428812;123;930561;-75